Detalii statie TRANSAVIA REDIU [0000197C]

Toti senzorii

Date Temperatura solului [C]Precipitatii [mm]Voltaj baterie [mV]Leaf Wetness [Min]HC Air temperature [C]HC Relative humidity [%]Punctul de roua [C]
medieminmaxsumaultimatimpmedieminmaxmediemediemin
2019-04-19 19:00:00 12.3 12.1 12.4 0 6932 12.99 12.37 13.64 39.61 -0.5 -1.1
2019-04-19 20:00:00 11.9 11.8 12.2 0 6786 11.14 10.3 12.21 42.28 -1.2 -1.6
2019-04-19 21:00:00 11.5 11.3 11.8 0 6766 8.06 4.96 10.56 52.87 -1.2 -2.2
2019-04-19 22:00:00 11 10.8 11.2 0 6756 5.6 3.94 7.7 61.43 -1.3 -2
2019-04-19 23:00:00 10.4 10.2 10.7 0 6738 3.33 2.47 4.23 73.7 -0.9 -1.3
2019-04-20 00:00:00 9.9 9.7 10.2 0 6728 2.3 1.8 2.66 87.03 0.2 -0.5
2019-04-20 01:00:00 9.5 9.3 9.8 0 6708 1.98 1.59 2.41 95.77 1.2 1
2019-04-20 02:00:00 9 8.7 9.3 0 6708 1.67 1.07 3.23 99.08 1.4 1
2019-04-20 03:00:00 8.7 8.5 8.9 0 6688 1.05 0.76 1.31 100 1 0.7
2019-04-20 04:00:00 8.2 8.1 8.5 0 6698 0.61 0.22 0.91 100 0.5 0.2
2019-04-20 05:00:00 7.9 7.7 8.1 0 6678 0 -0.35 0.36 100 0 -0.2
2019-04-20 06:00:00 7.6 7.5 7.8 0 6698 0 -0.57 0.48 100 0 -0.4
2019-04-20 07:00:00 7.3 7.1 7.5 0 6748 3.78 0.84 7.02 93.2 2.6 0.8
2019-04-20 08:00:00 7.3 7.1 7.4 0 6816 8.33 7.42 8.96 70.36 3.1 2.8
2019-04-20 09:00:00 7.7 7.5 8 0 6874 9.37 8.86 9.74 63.7 2.7 2
2019-04-20 10:00:00 8.3 7.7 8.7 0 6914 10.34 9.63 11.05 54.93 1.4 0.1
2019-04-20 11:00:00 9.3 8.9 9.9 0 7050 11.15 10.34 11.73 50.18 0.9 -1.2
2019-04-20 12:00:00 10.2 9.8 10.6 0 7098 11.34 10.36 12.46 44.81 -0.4 -1.5
2019-04-20 13:00:00 10.7 10.6 11 0 7118 11.94 10.59 13.22 42.42 -0.5 -1.8
2019-04-20 14:00:00 11.3 11.1 11.7 0 7098 12.57 11.38 13.41 41.79 -0.1 -0.6
2019-04-20 15:00:00 11.9 11.7 12.2 0 7108 12.8 11.62 13.84 39.84 -0.6 -1.3
2019-04-20 16:00:00 12.3 12.1 12.5 0 7118 13.98 13.28 14.91 38.3 -0.1 -1.1
2019-04-20 17:00:00 12.5 12.4 12.7 0 7118 13.73 12.95 14.46 38.39 -0.4 -1.5
2019-04-20 18:00:00 12.6 12.6 12.7 0 7088 13.98 13.44 14.5 37.63 -0.3 -1.2
2019-04-20 19:00:00 12.5 12.5 12.7 0 7070 11.45 8.59 12.91 53.24 1.8 0.5
2019-04-20 20:00:00 12.2 12 12.6 0 6786 6.25 4.78 7.82 79 2.7 2
2019-04-20 21:00:00 11.7 11.4 12.1 0 6766 4.2 3.61 4.84 86.63 2 1.6
2019-04-20 22:00:00 11.2 11 11.4 0 6748 3.31 3.04 3.71 92.41 2 1.8
2019-04-20 23:00:00 10.6 10.3 11 0 6728 3.16 2.69 3.64 92.42 1.9 1.7
2019-04-21 00:00:00 10.1 9.9 10.5 0 6728 2.01 1.46 2.48 99.54 1.8 1.4
2019-04-21 01:00:00 9.6 9.4 9.9 0 6708 2.47 1.46 3.99 99.25 2.2 1.4
2019-04-21 02:00:00 9.3 9.2 9.6 0 6698 3.83 3.54 4.31 89.46 2.1 1.6
2019-04-21 03:00:00 9.1 9 9.2 0 6698 4.37 3.22 6.5 90.74 2.8 1.9
2019-04-21 04:00:00 8.9 8.8 9 0 6698 4.74 4.13 5.92 86.68 2.5 1.8
2019-04-21 05:00:00 8.7 8.6 8.9 0 6708 4.77 4.04 5.21 92.69 3.5 3.1
2019-04-21 06:00:00 8.6 8.5 8.7 0 6698 4.23 3.88 4.86 94.74 3.3 2.7
2019-04-21 07:00:00 8.4 8.4 8.6 0 6786 5.64 3.89 8.16 87.73 3.5 2.5
2019-04-21 08:00:00 8.5 8.4 8.6 0 6904 9.74 8.63 10.46 59.52 1.9 0.4
2019-04-21 09:00:00 8.7 8.6 8.8 0 7070 10.21 9.71 10.88 63.67 3.4 1.9
2019-04-21 10:00:00 9 8.8 9.2 0 7098 10.15 9.62 10.72 68.77 4.4 1.8
2019-04-21 11:00:00 9.3 9.1 9.7 0 7098 11.31 10.64 12.05 62.44 4.2 2.9
2019-04-21 12:00:00 10 9.8 10.3 0 7108 12.13 11.22 13.19 58.44 4 2.8
2019-04-21 13:00:00 10.6 10.3 10.9 0 7108 13.91 12.89 15.16 53.13 4.3 3.5
2019-04-21 14:00:00 11.4 11 11.8 0 7088 15.62 14.7 16.18 48.12 4.5 3.8
2019-04-21 15:00:00 11.9 11.8 12.2 0 7080 14.72 12.84 15.47 49.97 4.1 3.2
2019-04-21 16:00:00 12.2 12 12.4 0 7088 14.5 12.74 16.11 53.9 5 4.1
2019-04-21 17:00:00 12.3 12.2 12.4 0.6 6854 11.88 10.46 13.51 71.74 6.7 5.4
2019-04-21 18:00:00 12.2 12.1 12.3 0 7098 10.2 9.82 10.56 97.92 9.8 8.5